This is the latest recevied weather packets stored in our database for station/object LKPD. If no packets are shown the sender has not sent any weather packets the latest 10 day(s).
| Time | Temp. | Humidity | Pressure | Rain* | Wind** | Luminosity | Snow |
|---|---|---|---|---|---|---|---|
| 1788303783 | 11.67° C | 10% | - | - | - | - | - |
| 1788302884 | 12.78° C | 93% | 1021 hPa | - | - | - | - |
| 1788301983 | 12.78° C | 93% | 1021 hPa | - | - | - | - |
| 1788301084 | 12.78° C | 93% | 1020 hPa | - | - | - | - |
| 1788300183 | 12.78° C | 93% | 1020 hPa | - | - | - | - |
| 1788299283 | 13.89° C | 87% | 1020 hPa | - | - | - | - |
| 1788298383 | 13.89° C | 87% | 1020 hPa | - | - | - | - |
| 1788297483 | 15° C | 82% | 1020 hPa | - | - | - | - |
| 1788296583 | 15° C | 82% | 1020 hPa | - | - | - | - |
| 1788295683 | 15° C | 82% | 1020 hPa | - | - | - | - |
| 1788294782 | 15° C | 82% | 1020 hPa | - | - | - | - |
| 1788293883 | 15.56° C | 77% | 1020 hPa | - | - | - | - |
| 1788292982 | 15.56° C | 77% | 1020 hPa | - | - | - | - |
| 1788292084 | 15.56° C | 77% | 1020 hPa | - | - | - | - |
| 1788291183 | 15.56° C | 77% | 1020 hPa | - | - | - | - |
| 1788290284 | 15.56° C | 77% | 1020 hPa | - | - | - | - |
| 1788289384 | 15.56° C | 77% | 1020 hPa | - | - | - | - |
| 1788288484 | 17.78° C | 67% | 1020 hPa | - | - | - | - |
| 1788287583 | 17.78° C | 67% | 1020 hPa | - | - | - | - |
| 1788286684 | 20° C | 56% | 1020 hPa | - | - | - | - |
| 1788285783 | 20° C | 56% | 1020 hPa | - | - | - | - |
| 1788284883 | 20.56° C | 52% | 1020 hPa | - | - | - | - |
| 1788283983 | 20.56° C | 52% | 1020 hPa | - | - | - | - |
| 1788283083 | 21.67° C | 49% | 1020 hPa | - | - | - | - |
| 1788282182 | 21.67° C | 49% | 1020 hPa | - | - | - | - |
* Rain since midnight (hover to see other rain measurements)
** Current wind speed in m/s (hover to see current wind gust speed)